Mineral Springs, North Carolina
Current Conditions -  °F | °C
As of 8:53 PM on Saturday 20 Dec 2014 (Local Time) from KEQY Reporting Station
Overcast Overcast  
Wind Chill: 41°   Ceiling: 2300
Heat Index: 41°   Visibility: 10mi
Dew Point: 35°   Wind: 3mph
Humidity: 79%   Direction: NA
Pressure: 30.24"   Gusts: NA
Location:  34.94°N, 80.67°W
Report Text: KEQY 210153Z AUTO VRB03KT 10SM OVC023 05/02 A3024 RMK AO2 SLP258 T00500017
Loading
Personal Weather Stations






























Interactive Weather Map New forecast layout! Learn more

10-Day Weather Forecast

Advertisements
Track Severe Weather on mobile